Impacts METAR Board
IDs:

KLGA - New York/La Guardia, NY, US

Updated at: 0000 UTC 17 Jul 2019
Potential Impact None Slight Moderate High
Time 16/12Z 16/13Z 16/14Z 16/15Z 16/16Z 16/17Z 16/18Z 16/19Z 16/20Z 16/21Z 16/22Z 16/23Z 17/00Z
Temp77 80 86 86 89 90 92 93 93 91 90 89 86
Dewpt57 58 56 57 58 57 58 59 60 64 64 64 67
Altim30.07 30.08 30.07 30.06 30.05 30.04 30.02 30.01 30.00 29.98 29.98 29.98 29.99
VIS10 10 10 10 10 10 10 10 10 10 10 10 10
CIG-- -- -- -- -- -- -- -- 250 250 250 250 250
CoverSCTFEWFEWSCTSCTSCTSCTSCTBKNBKNBKNBKNBKN
FltCatVFRVFRVFRVFRVFRVFRVFRVFRVFRVFRVFRVFRVFR
WX--------------------------
WDir60500210220220210200230150180190190
WSpd4 5 5 10 12 11 12 11 9 13 12 10 11
WGst-- -- -- -- 17 19 19 -- -- -- 19 -- --
Raw hourly METARs
KLGA 161151Z 06004KT 10SM FEW140 SCT250 25/14 A3007 RMK AO2 SLP184 T02500139 10250 20228 53009
KLGA 161251Z 05005KT 10SM FEW250 27/14 A3008 RMK AO2 SLP186 T02670144
KLGA 161351Z VRB05KT 10SM FEW250 30/13 A3007 RMK AO2 SLP182 T03000133
KLGA 161451Z 21010KT 10SM SCT250 30/14 A3006 RMK AO2 SLP179 T03000139 58004
KLGA 161551Z 22012G17KT 10SM FEW170 SCT250 32/14 A3005 RMK AO2 SLP177 T03170144
KLGA 161651Z 22011G19KT 10SM FEW120 FEW170 SCT250 32/14 A3004 RMK AO2 SLP172 ACSL NW T03220139
KLGA 161751Z 21012G19KT 10SM FEW120 FEW170 SCT250 33/14 A3002 RMK AO2 SLP167 ACSL NW-NE T03330144 10333 20250 58013
KLGA 161851Z 20011KT 10SM FEW120 FEW170 SCT250 34/15 A3001 RMK AO2 SLP163 T03390150
KLGA 161951Z 23009KT 190V260 10SM FEW065 SCT170 BKN250 34/16 A3000 RMK AO2 SLP158 T03390156
KLGA 162051Z 15013KT 10SM FEW065 SCT130 BKN250 33/18 A2998 RMK AO2 SLP151 T03280178 58016
KLGA 162151Z 18012G19KT 10SM FEW060 BKN250 32/18 A2998 RMK AO2 SLP150 T03220178
KLGA 162251Z 19010KT 10SM FEW060 BKN250 32/18 A2998 RMK AO2 SLP153 T03170178
KLGA 162351Z 19011KT 10SM FEW060 BKN250 30/19 A2999 RMK AO2 SLP154 T03000194 10344 20300 53003



Page loaded:  00:18 UTC  |   05:18 PM Pacific  |   06:18 PM Mountain  |   07:18 PM Central  |   08:18 PM Eastern

 

ADVISORIES

FORECASTS

FORECASTS

OBSERVATIONS

USER TOOLS

ABOUT US